Skip Navigation Links Skip Navigation Links

Current Weather

Rio Grande BA, Rio Grande, Argentina

For information only: do not use for flight planning or navigation.
Latest weather
Observation time Friday, May 29, 2020 7:00 PM -03
Local time Friday, May 29, 2020 8:11 PM -03
Flight conditions Visual Meteorological Conditions
Winds
Wind direction West (270°)
Wind speed 9 mph
Visibility 6.2 mi.
Sky condition
Ceiling unlimited
Cloud layer few clouds 2,000 ft.
Temperature 43°F
Dewpoint 39°F
Altimeter 30.12 in.Hg
Derived measurements
Relative humidity 87%
Wind chill 37°F
Density altitude -1123 ft.
METAR SAWE 292200Z 27008KT 9999 FEW020 06/04 Q1020

Settings

Location code

InnerDrive.Weather 4.0.6770.0 Release CLR 4.0.30319.42000
Copyright ©2018 Inner Drive Technology. All rights reserved. Portions Copyright ©1986-2018 David Braverman.

Find weather

Site navigation


Skip Navigation Links

Place info

Page info

PayPal - The safer, easier way to pay online!

Return home.

Copyright ©2020 Inner Drive Technology. Purveyors of fine, hand-crafted computer software. Page printed 2020-05-29T23:11:33 UTC.